Time;durP1;ratioP1;P1;durP2;ratioP2;P2;SDS_P1;SDS_P2;PMS_P1;PMS_P2;Temp;Humidity;BMP_temperature;BMP_pressure;BME280_temperature;BME280_humidity;BME280_pressure;Samples;Min_cycle;Max_cycle;Signal;HPM_P1;HPM_P2
2023/01/28 00:01:14;;;;;;;;;;;3.00;77.80;;;;;;5035404;28;19909;-83
2023/01/28 00:03:39;;;;;;;;;;;3.00;78.00;;;;;;5037033;28;19914;-83
2023/01/28 00:06:06;;;;;;;;;;;3.00;77.20;;;;;;5040797;28;19922;-84
2023/01/28 00:08:35;;;;;;;;;;;3.10;77.50;;;;;;5038306;28;19917;-83
2023/01/28 00:11:01;;;;;;;;;;;2.90;77.60;;;;;;5036090;28;19917;-83
2023/01/28 00:13:27;;;;;;;;;;;3.00;78.00;;;;;;5034546;28;19913;-84
2023/01/28 00:16:00;;;;;;;;;;;3.10;77.60;;;;;;5034086;28;19928;-83
2023/01/28 00:18:26;;;;;;;;;;;3.10;77.80;;;;;;5057882;22;19933;-82
2023/01/28 00:20:58;;;;;;;;;;;3.10;78.50;;;;;;5048609;28;20011;-82
2023/01/28 00:23:24;;;;;;;;;;;3.10;78.40;;;;;;5046985;28;19959;-82
2023/01/28 00:25:50;;;;;;;;;;;3.20;78.60;;;;;;5047764;28;19951;-82
2023/01/28 00:28:17;;;;;;;;;;;3.10;77.60;;;;;;5043612;28;19914;-82
2023/01/28 00:30:43;;;;;;;;;;;3.00;78.10;;;;;;5032935;28;19935;-82
2023/01/28 00:33:08;;;;;;;;;;;3.00;78.40;;;;;;5037722;28;19991;-82
2023/01/28 00:35:34;;;;;;;;;;;3.00;78.10;;;;;;5032046;28;19970;-82
2023/01/28 00:37:59;;;;;;;;;;;3.10;78.70;;;;;;5029088;28;19909;-82
2023/01/28 00:40:25;;;;;;;;;;;3.10;78.10;;;;;;5044237;28;19983;-82
2023/01/28 00:42:50;;;;;;;;;;;3.10;78.80;;;;;;5019895;28;19914;-82
2023/01/28 00:45:16;;;;;;;;;;;3.10;78.60;;;;;;5031857;28;19917;-82
2023/01/28 00:47:44;;;;;;;;;;;3.10;78.60;;;;;;5024950;28;19920;-82
2023/01/28 00:50:10;;;;;;;;;;;3.20;77.70;;;;;;5032146;28;20278;-82
2023/01/28 00:52:35;;;;;;;;;;;3.20;78.00;;;;;;5024124;28;19913;-82
2023/01/28 00:55:00;;;;;;;;;;;3.10;78.20;;;;;;5032309;28;20394;-82
2023/01/28 00:57:26;;;;;;;;;;;3.10;78.10;;;;;;5030446;28;19913;-79
2023/01/28 00:59:51;;;;;;;;;;;3.10;77.90;;;;;;5027566;28;19935;-80
2023/01/28 01:02:17;;;;;;;;;;;3.10;77.10;;;;;;5025447;28;19913;-80
2023/01/28 01:04:53;;;;;;;;;;;2.90;77.00;;;;;;5029732;28;19940;-80
2023/01/28 01:07:20;;;;;;;;;;;2.90;77.60;;;;;;5041608;28;19924;-80
2023/01/28 01:09:46;;;;;;;;;;;2.90;77.90;;;;;;5031081;28;20176;-80
2023/01/28 01:12:11;;;;;;;;;;;2.90;77.50;;;;;;5030273;28;20290;-80
2023/01/28 01:14:36;;;;;;;;;;;3.00;77.50;;;;;;5033909;28;19949;-81
2023/01/28 01:17:02;;;;;;;;;;;3.00;78.00;;;;;;5046019;28;19937;-81
2023/01/28 01:19:28;;;;;;;;;;;2.90;77.10;;;;;;5030512;28;19924;-80
2023/01/28 01:21:55;;;;;;;;;;;2.90;75.80;;;;;;5036881;28;19913;-80
2023/01/28 01:24:21;;;;;;;;;;;3.00;76.30;;;;;;5037097;28;19917;-80
2023/01/28 01:26:46;;;;;;;;;;;2.90;76.50;;;;;;5049038;28;19936;-80
2023/01/28 01:29:11;;;;;;;;;;;2.90;76.30;;;;;;5023185;28;19936;-81
2023/01/28 01:31:37;;;;;;;;;;;2.90;77.30;;;;;;5032386;28;19917;-81
2023/01/28 01:34:03;;;;;;;;;;;3.00;76.70;;;;;;5033664;28;19932;-81
2023/01/28 01:36:28;;;;;;;;;;;3.00;76.30;;;;;;5035201;28;20310;-81
2023/01/28 01:38:54;;;;;;;;;;;3.00;76.40;;;;;;5032281;28;20008;-81
2023/01/28 01:41:25;;;;;;;;;;;3.00;76.60;;;;;;5029239;28;19917;-81
2023/01/28 01:43:52;;;;;;;;;;;3.00;77.20;;;;;;5027420;28;20371;-81
2023/01/28 01:46:33;;;;;;;;;;;2.90;75.70;;;;;;5035045;28;19975;-81
2023/01/28 01:49:05;;;;;;;;;;;3.00;76.20;;;;;;5025335;28;19919;-81
2023/01/28 01:51:31;;;;;;;;;;;2.90;75.40;;;;;;5030881;28;19963;-81
2023/01/28 01:53:58;;;;;;;;;;;2.70;75.10;;;;;;5031804;28;19913;-81
2023/01/28 01:56:27;;;;;;;;;;;2.70;76.40;;;;;;5022182;28;20385;-81
2023/01/28 01:58:53;;;;;;;;;;;2.80;75.90;;;;;;5026294;28;19936;-81
2023/01/28 02:01:21;;;;;;;;;;;2.80;75.90;;;;;;5041806;28;19921;-81
2023/01/28 02:03:52;;;;;;;;;;;2.80;76.30;;;;;;5042029;28;19980;-81
2023/01/28 02:06:17;;;;;;;;;;;2.90;77.00;;;;;;5033883;28;19999;-81
2023/01/28 02:08:44;;;;;;;;;;;3.10;75.10;;;;;;5030927;28;19955;-81
2023/01/28 02:11:10;;;;;;;;;;;3.20;74.10;;;;;;5025870;28;19944;-81
2023/01/28 02:13:38;;;;;;;;;;;2.90;74.40;;;;;;5035358;28;19917;-81
2023/01/28 02:16:04;;;;;;;;;;;3.00;74.90;;;;;;5029921;28;19967;-81
2023/01/28 02:18:30;;;;;;;;;;;2.90;74.90;;;;;;5025821;28;19916;-81
2023/01/28 02:20:56;;;;;;;;;;;2.90;75.30;;;;;;5029278;28;20268;-81
2023/01/28 02:23:42;;;;;;;;;;;2.80;75.80;;;;;;5021602;28;19924;-80
2023/01/28 02:26:22;;;;;;;;;;;2.80;75.70;;;;;;5020887;28;19962;-81
2023/01/28 02:28:53;;;;;;;;;;;2.70;76.20;;;;;;5018787;28;20354;-81
2023/01/28 02:31:48;;;;;;;;;;;2.80;75.70;;;;;;5043659;28;20302;-81
2023/01/28 02:34:16;;;;;;;;;;;2.70;75.40;;;;;;4977724;28;21291;-81
2023/01/28 02:36:50;;;;;;;;;;;2.70;75.90;;;;;;5032455;28;21898;-81
2023/01/28 02:39:19;;;;;;;;;;;2.70;75.80;;;;;;5032803;28;20362;-81
2023/01/28 02:41:55;;;;;;;;;;;2.70;75.60;;;;;;5027531;28;19913;-81
2023/01/28 02:44:20;;;;;;;;;;;2.60;75.80;;;;;;5023974;28;20298;-81
2023/01/28 02:49:50;;;;;;;;;;;2.90;74.20;;;;;;5029624;28;20279;-81
2023/01/28 02:52:16;;;;;;;;;;;2.60;74.10;;;;;;5044962;28;19917;-80
2023/01/28 02:54:42;;;;;;;;;;;2.50;74.80;;;;;;5054443;28;20004;-81
2023/01/28 02:57:10;;;;;;;;;;;2.50;75.10;;;;;;5029657;28;19949;-81
2023/01/28 02:59:41;;;;;;;;;;;2.60;75.20;;;;;;5031015;28;19960;-81
2023/01/28 03:02:19;;;;;;;;;;;2.50;74.90;;;;;;5028321;28;19913;-81
2023/01/28 03:04:56;;;;;;;;;;;2.50;74.60;;;;;;5026412;28;19937;-81
2023/01/28 03:07:23;;;;;;;;;;;2.60;75.20;;;;;;5028980;28;19921;-81
2023/01/28 03:09:50;;;;;;;;;;;2.50;74.40;;;;;;5033075;28;19913;-81
2023/01/28 03:37:23;;;;;;;;;;;2.50;74.50;;;;;;5032664;28;19971;-81
2023/01/28 03:39:48;;;;;;;;;;;2.50;74.60;;;;;;5029829;28;19913;-81
2023/01/28 03:42:14;;;;;;;;;;;2.60;74.10;;;;;;5030315;28;19913;-81
2023/01/28 03:44:52;;;;;;;;;;;2.60;74.20;;;;;;5027813;28;20304;-81
2023/01/28 03:47:22;;;;;;;;;;;2.80;73.40;;;;;;5029431;28;19920;-80
2023/01/28 03:49:48;;;;;;;;;;;2.80;72.90;;;;;;5033807;28;19996;-80
2023/01/28 03:52:15;;;;;;;;;;;2.80;72.70;;;;;;5029017;28;20321;-80
2023/01/28 03:54:40;;;;;;;;;;;2.70;73.50;;;;;;5028128;28;19921;-80
2023/01/28 03:57:06;;;;;;;;;;;2.60;72.70;;;;;;5046847;28;19917;-80
2023/01/28 03:59:32;;;;;;;;;;;2.50;73.50;;;;;;5025676;28;19914;-81
2023/01/28 04:01:57;;;;;;;;;;;2.60;73.20;;;;;;5033257;28;19917;-80
2023/01/28 04:04:23;;;;;;;;;;;2.50;72.80;;;;;;5035792;28;19925;-80
2023/01/28 04:06:52;;;;;;;;;;;2.70;72.10;;;;;;5030707;28;19927;-80
2023/01/28 04:09:18;;;;;;;;;;;2.60;72.30;;;;;;5028187;28;19919;-80
2023/01/28 04:11:43;;;;;;;;;;;2.60;73.40;;;;;;5030797;28;20392;-80
2023/01/28 04:14:09;;;;;;;;;;;2.60;72.70;;;;;;5035987;28;19917;-81
2023/01/28 04:16:34;;;;;;;;;;;2.50;72.90;;;;;;5033011;28;19935;-80
2023/01/28 04:18:59;;;;;;;;;;;2.60;72.20;;;;;;5043333;28;20000;-80
2023/01/28 04:21:25;;;;;;;;;;;2.60;72.50;;;;;;5038622;28;19918;-80
2023/01/28 04:23:50;;;;;;;;;;;2.40;72.70;;;;;;5034796;28;19920;-80
2023/01/28 04:26:16;;;;;;;;;;;2.40;73.00;;;;;;5050837;28;20371;-80
2023/01/28 04:28:41;;;;;;;;;;;2.40;72.70;;;;;;5032158;28;19913;-81
2023/01/28 04:31:07;;;;;;;;;;;2.50;73.00;;;;;;5035042;28;19913;-81
2023/01/28 04:33:32;;;;;;;;;;;2.60;71.90;;;;;;5035693;28;19996;-81
2023/01/28 04:35:57;;;;;;;;;;;2.50;72.10;;;;;;5032234;28;21034;-81
2023/01/28 04:38:23;;;;;;;;;;;2.40;72.50;;;;;;5035289;28;19913;-81
2023/01/28 04:40:49;;;;;;;;;;;2.50;72.50;;;;;;5029886;28;19995;-81
2023/01/28 04:43:15;;;;;;;;;;;2.50;72.50;;;;;;5037965;28;19913;-81
2023/01/28 04:45:40;;;;;;;;;;;2.50;72.80;;;;;;5056565;28;19944;-81
2023/01/28 04:48:05;;;;;;;;;;;2.60;71.70;;;;;;5038769;28;19917;-81
2023/01/28 04:50:31;;;;;;;;;;;2.60;72.30;;;;;;5035216;28;20298;-81
2023/01/28 04:52:56;;;;;;;;;;;2.40;72.20;;;;;;5036262;28;20314;-81
2023/01/28 04:55:22;;;;;;;;;;;2.30;73.30;;;;;;5033277;28;20268;-80
2023/01/28 04:57:47;;;;;;;;;;;2.50;72.00;;;;;;5030892;28;20365;-80
2023/01/28 05:00:13;;;;;;;;;;;2.40;72.50;;;;;;5034505;28;19913;-80
2023/01/28 05:02:38;;;;;;;;;;;2.50;73.20;;;;;;5035755;28;20406;-80
2023/01/28 05:05:07;;;;;;;;;;;2.40;72.50;;;;;;5033355;28;19917;-80
2023/01/28 05:07:33;;;;;;;;;;;2.40;73.30;;;;;;5029815;28;20085;-80
2023/01/28 05:09:58;;;;;;;;;;;2.50;73.20;;;;;;5029968;28;19984;-80
2023/01/28 05:12:24;;;;;;;;;;;2.50;73.20;;;;;;5027171;28;19921;-80
2023/01/28 05:14:49;;;;;;;;;;;2.50;73.60;;;;;;5029642;28;19914;-80
2023/01/28 05:17:15;;;;;;;;;;;2.60;73.20;;;;;;5033229;28;19963;-80
2023/01/28 05:19:40;;;;;;;;;;;2.60;72.30;;;;;;5032197;28;19958;-80
2023/01/28 05:22:06;;;;;;;;;;;2.60;72.50;;;;;;5024912;28;19924;-80
2023/01/28 05:24:31;;;;;;;;;;;2.50;73.30;;;;;;5035625;28;20378;-80
2023/01/28 05:26:57;;;;;;;;;;;2.40;73.50;;;;;;5031746;28;19920;-80
2023/01/28 05:29:22;;;;;;;;;;;2.50;74.00;;;;;;5033684;28;19912;-80
2023/01/28 05:31:48;;;;;;;;;;;2.60;74.10;;;;;;5030038;28;20198;-80
2023/01/28 05:34:13;;;;;;;;;;;2.60;74.30;;;;;;5047171;28;19996;-80
2023/01/28 05:36:40;;;;;;;;;;;2.60;74.10;;;;;;5045007;28;19967;-80
2023/01/28 05:39:06;;;;;;;;;;;2.60;74.50;;;;;;5025245;28;19917;-80
2023/01/28 05:41:32;;;;;;;;;;;2.50;73.40;;;;;;5028109;28;19949;-80
2023/01/28 05:43:57;;;;;;;;;;;2.50;73.00;;;;;;5031008;28;19921;-80
2023/01/28 05:46:24;;;;;;;;;;;2.50;73.10;;;;;;5047860;28;19913;-80
2023/01/28 05:48:49;;;;;;;;;;;2.40;73.20;;;;;;5045325;28;19913;-80
2023/01/28 05:51:15;;;;;;;;;;;2.30;72.00;;;;;;5036579;28;19917;-80
2023/01/28 05:53:41;;;;;;;;;;;2.20;71.80;;;;;;5036101;28;19913;-81
2023/01/28 05:56:06;;;;;;;;;;;2.30;73.10;;;;;;5032491;28;19921;-81
2023/01/28 05:58:32;;;;;;;;;;;2.30;73.70;;;;;;5036766;28;19949;-80
2023/01/28 06:00:57;;;;;;;;;;;2.30;72.70;;;;;;5035236;28;19928;-80
2023/01/28 06:03:23;;;;;;;;;;;2.30;72.20;;;;;;5030434;28;19967;-82
2023/01/28 06:05:48;;;;;;;;;;;2.30;71.80;;;;;;5025326;28;20334;-80
2023/01/28 06:08:14;;;;;;;;;;;2.30;72.40;;;;;;5041159;28;19971;-80
2023/01/28 06:10:39;;;;;;;;;;;2.30;73.70;;;;;;5041511;28;19917;-80
2023/01/28 06:13:05;;;;;;;;;;;2.30;72.50;;;;;;5043012;28;19935;-80
2023/01/28 06:15:30;;;;;;;;;;;2.40;73.00;;;;;;5039319;28;19917;-80
2023/01/28 06:17:56;;;;;;;;;;;2.30;72.30;;;;;;5031595;28;19924;-80
2023/01/28 06:20:21;;;;;;;;;;;2.30;72.40;;;;;;5062032;23;20027;-80
2023/01/28 06:22:49;;;;;;;;;;;2.30;73.20;;;;;;5051669;28;19917;-81
2023/01/28 06:25:14;;;;;;;;;;;2.30;73.60;;;;;;5051486;28;19959;-81
2023/01/28 06:27:40;;;;;;;;;;;2.50;72.00;;;;;;5055192;28;20325;-82
2023/01/28 06:30:05;;;;;;;;;;;2.30;71.80;;;;;;5053734;28;20123;-80
2023/01/28 06:32:32;;;;;;;;;;;2.20;72.00;;;;;;5055592;28;19931;-81
2023/01/28 06:34:58;;;;;;;;;;;2.20;72.50;;;;;;5059042;28;20050;-82
2023/01/28 06:37:23;;;;;;;;;;;2.20;73.00;;;;;;5049911;28;19929;-81
2023/01/28 06:39:49;;;;;;;;;;;2.30;72.60;;;;;;5063637;28;19913;-80
2023/01/28 06:42:14;;;;;;;;;;;2.10;71.00;;;;;;5058801;28;20011;-82
2023/01/28 06:44:39;;;;;;;;;;;2.00;71.40;;;;;;5056016;28;19917;-82
2023/01/28 06:47:06;;;;;;;;;;;2.00;71.70;;;;;;5065554;28;20397;-80
2023/01/28 06:49:31;;;;;;;;;;;2.10;72.20;;;;;;5070534;28;19905;-80
2023/01/28 06:51:57;;;;;;;;;;;2.10;72.00;;;;;;5055564;28;19939;-82
2023/01/28 06:54:22;;;;;;;;;;;2.10;72.20;;;;;;5047501;28;19931;-82
2023/01/28 06:56:48;;;;;;;;;;;2.10;72.20;;;;;;5041035;28;20301;-82
2023/01/28 06:59:13;;;;;;;;;;;2.10;72.90;;;;;;5054270;28;20458;-83
2023/01/28 07:01:39;;;;;;;;;;;2.10;72.70;;;;;;5042788;28;20386;-83
2023/01/28 07:04:04;;;;;;;;;;;2.10;72.80;;;;;;5046379;28;20831;-82
2023/01/28 07:06:29;;;;;;;;;;;2.00;73.50;;;;;;5044799;28;19974;-80
2023/01/28 07:08:55;;;;;;;;;;;1.90;73.30;;;;;;5058342;28;19988;-81
2023/01/28 07:11:21;;;;;;;;;;;2.00;73.30;;;;;;5051252;28;19928;-81
2023/01/28 07:13:46;;;;;;;;;;;1.80;72.80;;;;;;5048659;28;19944;-81
2023/01/28 07:16:12;;;;;;;;;;;1.90;73.00;;;;;;5047783;28;19964;-82
2023/01/28 07:18:37;;;;;;;;;;;1.90;73.30;;;;;;5044319;28;20291;-81
2023/01/28 07:21:03;;;;;;;;;;;2.00;73.40;;;;;;5050538;28;19924;-79
2023/01/28 07:23:29;;;;;;;;;;;2.00;73.50;;;;;;5043130;28;19917;-80
2023/01/28 07:25:54;;;;;;;;;;;2.00;72.10;;;;;;5058851;28;19919;-79
2023/01/28 07:28:22;;;;;;;;;;;1.90;72.60;;;;;;5066701;28;19923;-80
2023/01/28 07:30:49;;;;;;;;;;;1.90;74.30;;;;;;5063549;28;19920;-81
2023/01/28 07:33:14;;;;;;;;;;;1.90;74.30;;;;;;5063699;28;19919;-81
2023/01/28 07:35:40;;;;;;;;;;;2.00;74.20;;;;;;5061106;28;19952;-81
2023/01/28 07:38:05;;;;;;;;;;;1.90;73.70;;;;;;5078158;28;19927;-79
2023/01/28 07:40:30;;;;;;;;;;;2.10;73.40;;;;;;5068813;28;19928;-80
2023/01/28 07:42:56;;;;;;;;;;;2.00;72.30;;;;;;5060499;28;19920;-80
2023/01/28 07:45:23;;;;;;;;;;;2.00;70.80;;;;;;5055201;28;20389;-80
2023/01/28 07:47:59;;;;;;;;;;;1.90;71.10;;;;;;5062712;28;19913;-79
2023/01/28 07:50:24;;;;;;;;;;;1.90;72.10;;;;;;5062621;28;19920;-79
2023/01/28 07:52:50;;;;;;;;;;;2.00;70.80;;;;;;5059873;28;19920;-80
2023/01/28 07:55:16;;;;;;;;;;;1.90;71.20;;;;;;5058001;28;19943;-82
2023/01/28 07:57:47;;;;;;;;;;;1.80;70.70;;;;;;5050464;28;20005;-82
2023/01/28 08:00:13;;;;;;;;;;;1.70;70.20;;;;;;5047164;28;19913;-80
2023/01/28 08:02:38;;;;;;;;;;;1.80;71.00;;;;;;5055052;28;19920;-80
2023/01/28 08:05:04;;;;;;;;;;;1.90;71.20;;;;;;5051374;28;19936;-79
2023/01/28 08:07:30;;;;;;;;;;;1.90;71.20;;;;;;5051525;28;19966;-80
2023/01/28 08:09:55;;;;;;;;;;;1.90;70.60;;;;;;5053265;28;20354;-81
2023/01/28 08:12:21;;;;;;;;;;;2.00;69.60;;;;;;5047845;28;20018;-81
2023/01/28 08:14:46;;;;;;;;;;;2.10;69.70;;;;;;5055653;28;19913;-80
2023/01/28 08:17:11;;;;;;;;;;;2.10;70.50;;;;;;5057419;28;19916;-81
2023/01/28 08:19:37;;;;;;;;;;;2.20;69.80;;;;;;5056932;28;19928;-81
2023/01/28 08:22:02;;;;;;;;;;;2.10;68.80;;;;;;5055663;28;19913;-81
2023/01/28 08:24:28;;;;;;;;;;;2.20;69.50;;;;;;5049379;28;20076;-81
2023/01/28 08:26:53;;;;;;;;;;;2.10;69.50;;;;;;5047171;28;20026;-80
2023/01/28 08:29:19;;;;;;;;;;;1.90;70.20;;;;;;5051025;28;20382;-82
2023/01/28 08:31:44;;;;;;;;;;;1.70;70.50;;;;;;5047524;28;20373;-83
2023/01/28 08:34:09;;;;;;;;;;;1.80;71.30;;;;;;5045958;28;20014;-79
2023/01/28 08:36:35;;;;;;;;;;;1.80;71.10;;;;;;5048260;28;19923;-81
2023/01/28 08:39:00;;;;;;;;;;;1.80;71.30;;;;;;5066996;28;19912;-82
2023/01/28 08:41:26;;;;;;;;;;;1.80;71.60;;;;;;5069662;28;19968;-81
2023/01/28 08:43:51;;;;;;;;;;;1.90;71.10;;;;;;5065246;28;19924;-83
2023/01/28 08:46:17;;;;;;;;;;;1.90;71.50;;;;;;5049805;28;19913;-83
2023/01/28 08:48:42;;;;;;;;;;;2.10;71.50;;;;;;5042530;28;19917;-83
2023/01/28 08:51:08;;;;;;;;;;;2.20;70.60;;;;;;5046064;28;20074;-84
2023/01/28 08:53:33;;;;;;;;;;;2.30;69.40;;;;;;5046597;28;19956;-85
2023/01/28 08:55:59;;;;;;;;;;;2.30;69.20;;;;;;5048893;28;19924;-87
2023/01/28 08:58:24;;;;;;;;;;;2.30;68.30;;;;;;5042362;28;19921;-85
2023/01/28 09:00:50;;;;;;;;;;;2.20;68.60;;;;;;5047171;28;19920;-86
2023/01/28 09:03:15;;;;;;;;;;;2.20;68.40;;;;;;5044679;28;19912;-86
2023/01/28 09:05:41;;;;;;;;;;;2.30;68.50;;;;;;5047648;28;19962;-84
2023/01/28 09:08:08;;;;;;;;;;;2.30;69.40;;;;;;5063378;28;19913;-84
2023/01/28 09:10:33;;;;;;;;;;;2.50;68.00;;;;;;5063480;28;20041;-84
2023/01/28 09:13:03;;;;;;;;;;;2.40;68.30;;;;;;5055984;28;20159;-84
2023/01/28 09:15:29;;;;;;;;;;;2.10;68.50;;;;;;5058866;28;19913;-81
2023/01/28 09:17:58;;;;;;;;;;;2.30;68.10;;;;;;5063852;28;19913;-82
2023/01/28 09:20:23;;;;;;;;;;;2.30;67.30;;;;;;5056238;28;19984;-82
2023/01/28 09:22:49;;;;;;;;;;;2.30;67.60;;;;;;5059374;28;19948;-81
2023/01/28 09:25:14;;;;;;;;;;;2.30;68.60;;;;;;5056938;28;19951;-81
2023/01/28 09:27:40;;;;;;;;;;;2.20;68.40;;;;;;5052862;28;19918;-83
2023/01/28 09:30:05;;;;;;;;;;;2.30;68.40;;;;;;5059803;28;19925;-81
2023/01/28 09:32:31;;;;;;;;;;;2.40;67.60;;;;;;5055446;28;20018;-81
2023/01/28 09:34:56;;;;;;;;;;;2.50;67.60;;;;;;5053857;28;19917;-81
2023/01/28 09:37:22;;;;;;;;;;;2.50;67.20;;;;;;5046542;28;19924;-82
2023/01/28 09:39:47;;;;;;;;;;;2.30;67.00;;;;;;5047224;28;19920;-81
2023/01/28 09:42:30;;;;;;;;;;;2.30;67.00;;;;;;5056737;28;19936;-80
2023/01/28 09:45:14;;;;;;;;;;;2.40;67.60;;;;;;5056720;28;21432;-81
2023/01/28 09:47:42;;;;;;;;;;;2.30;68.00;;;;;;5049225;28;19964;-80
2023/01/28 09:50:13;;;;;;;;;;;2.40;68.20;;;;;;5045237;28;19913;-82
2023/01/28 09:52:40;;;;;;;;;;;2.40;69.30;;;;;;5052976;28;19917;-83
2023/01/28 09:55:18;;;;;;;;;;;2.60;67.40;;;;;;5069917;28;19912;-81
2023/01/28 09:57:51;;;;;;;;;;;2.50;66.80;;;;;;5052007;28;19985;-83
2023/01/28 10:00:18;;;;;;;;;;;2.20;67.40;;;;;;5054434;28;19973;-81
2023/01/28 10:02:54;;;;;;;;;;;2.10;67.80;;;;;;5066075;28;19927;-77
2023/01/28 10:05:29;;;;;;;;;;;2.10;67.80;;;;;;5073679;28;19912;-82
2023/01/28 10:07:55;;;;;;;;;;;2.10;67.60;;;;;;5050532;28;19913;-83
2023/01/28 10:10:43;;;;;;;;;;;2.00;67.90;;;;;;5053857;28;19920;-83
2023/01/28 10:13:36;;;;;;;;;;;2.00;68.90;;;;;;5050618;28;19948;-84
2023/01/28 10:16:08;;;;;;;;;;;2.00;68.10;;;;;;5047659;28;19917;-86
2023/01/28 10:18:39;;;;;;;;;;;2.30;67.30;;;;;;5049397;28;19920;-87
2023/01/28 10:21:09;;;;;;;;;;;2.30;67.10;;;;;;5051784;28;19917;-84
2023/01/28 10:23:53;;;;;;;;;;;2.30;67.00;;;;;;5052485;28;19998;-87
2023/01/28 10:26:22;;;;;;;;;;;2.10;67.10;;;;;;5049954;28;19920;-84
2023/01/28 10:28:51;;;;;;;;;;;2.20;67.80;;;;;;5053761;28;19920;-84
2023/01/28 10:31:16;;;;;;;;;;;2.30;68.30;;;;;;5058292;28;19964;-84
2023/01/28 10:33:42;;;;;;;;;;;2.10;67.10;;;;;;5049158;28;20530;-83
2023/01/28 10:36:08;;;;;;;;;;;2.00;68.50;;;;;;5055716;28;20348;-81
2023/01/28 10:38:34;;;;;;;;;;;1.80;68.10;;;;;;5056939;28;19924;-81
2023/01/28 10:41:01;;;;;;;;;;;2.00;68.60;;;;;;5056635;28;19917;-82
2023/01/28 10:43:29;;;;;;;;;;;1.90;68.80;;;;;;5050884;28;19952;-83
2023/01/28 10:46:07;;;;;;;;;;;2.00;68.10;;;;;;5052218;28;19920;-84
2023/01/28 10:48:34;;;;;;;;;;;2.10;67.60;;;;;;5047739;28;19923;-81
2023/01/28 10:51:01;;;;;;;;;;;2.10;68.20;;;;;;5059174;28;19917;-83
2023/01/28 10:53:37;;;;;;;;;;;2.10;68.50;;;;;;5053658;28;19921;-87
2023/01/28 10:56:04;;;;;;;;;;;2.40;69.00;;;;;;5051408;28;20291;-85
2023/01/28 10:58:32;;;;;;;;;;;2.40;67.30;;;;;;5052024;28;19920;-85
2023/01/28 11:00:59;;;;;;;;;;;2.60;66.60;;;;;;5051003;28;19966;-84
2023/01/28 11:03:31;;;;;;;;;;;2.50;67.20;;;;;;5051485;28;20326;-85
2023/01/28 11:05:57;;;;;;;;;;;2.40;66.90;;;;;;5054181;28;19920;-84
2023/01/28 11:08:23;;;;;;;;;;;2.50;67.80;;;;;;5056361;28;19912;-85
2023/01/28 11:10:49;;;;;;;;;;;2.50;67.10;;;;;;5056426;28;19931;-85
2023/01/28 11:13:25;;;;;;;;;;;2.50;68.00;;;;;;5050687;28;20015;-84
2023/01/28 11:16:00;;;;;;;;;;;2.60;67.20;;;;;;5050042;28;19917;-86
2023/01/28 11:18:27;;;;;;;;;;;2.60;67.70;;;;;;5043197;28;20011;-86
2023/01/28 11:20:59;;;;;;;;;;;2.80;66.80;;;;;;5052468;28;19931;-86
2023/01/28 11:23:26;;;;;;;;;;;2.60;66.40;;;;;;5051238;28;19909;-86
2023/01/28 11:25:59;;;;;;;;;;;2.50;67.20;;;;;;5048741;28;20451;-84
2023/01/28 11:28:24;;;;;;;;;;;2.50;67.50;;;;;;5054727;28;19909;-87
2023/01/28 11:30:51;;;;;;;;;;;2.30;67.80;;;;;;5060395;28;20004;-85
2023/01/28 11:33:22;;;;;;;;;;;2.30;68.70;;;;;;5052125;28;19921;-85
2023/01/28 11:35:55;;;;;;;;;;;2.50;67.10;;;;;;5066864;28;19909;-84
2023/01/28 11:38:22;;;;;;;;;;;2.50;67.60;;;;;;5048040;28;19912;-85
2023/01/28 11:40:51;;;;;;;;;;;2.60;67.90;;;;;;5065445;28;19968;-81
2023/01/28 11:43:17;;;;;;;;;;;2.70;67.30;;;;;;5074008;28;19905;-83
2023/01/28 11:45:50;;;;;;;;;;;2.70;66.30;;;;;;5065925;28;19940;-83
2023/01/28 11:48:22;;;;;;;;;;;2.60;66.40;;;;;;5067510;28;20026;-84
2023/01/28 11:51:03;;;;;;;;;;;2.60;66.40;;;;;;5053360;28;19963;-83
2023/01/28 11:53:39;;;;;;;;;;;2.50;67.10;;;;;;5056717;28;19924;-82
2023/01/28 11:56:04;;;;;;;;;;;2.60;66.80;;;;;;5060125;28;20278;-83
2023/01/28 11:58:36;;;;;;;;;;;2.60;67.10;;;;;;5066290;28;19917;-81
2023/01/28 12:01:05;;;;;;;;;;;2.50;66.20;;;;;;5053611;28;20386;-83
2023/01/28 12:03:33;;;;;;;;;;;2.60;66.60;;;;;;5043658;28;19974;-83
2023/01/28 12:06:17;;;;;;;;;;;2.60;66.50;;;;;;5057966;28;19917;-83
2023/01/28 12:08:55;;;;;;;;;;;2.70;65.80;;;;;;5053672;28;19909;-84
2023/01/28 12:14:36;;;;;;;;;;;2.50;65.90;;;;;;5057592;28;19915;-83
2023/01/28 12:17:01;;;;;;;;;;;2.50;65.50;;;;;;5045964;28;19935;-82
2023/01/28 12:19:30;;;;;;;;;;;2.50;66.10;;;;;;5060306;23;19929;-79
2023/01/28 12:22:14;;;;;;;;;;;2.60;65.40;;;;;;5051869;28;20007;-79
2023/01/28 12:24:58;;;;;;;;;;;2.70;66.50;;;;;;5060036;28;19921;-79
2023/01/28 12:27:30;;;;;;;;;;;2.70;65.40;;;;;;5063097;28;19913;-79
2023/01/28 12:30:15;;;;;;;;;;;2.70;65.40;;;;;;5059986;28;19919;-80
2023/01/28 12:32:57;;;;;;;;;;;2.60;66.40;;;;;;5035531;28;19931;-80
2023/01/28 12:35:33;;;;;;;;;;;2.50;66.30;;;;;;5047211;28;19917;-80
2023/01/28 12:38:06;;;;;;;;;;;2.40;66.20;;;;;;5075233;28;19924;-80
2023/01/28 12:40:32;;;;;;;;;;;2.50;66.40;;;;;;5060004;28;19967;-80
2023/01/28 12:43:09;;;;;;;;;;;2.30;66.40;;;;;;5053168;28;20087;-80
2023/01/28 12:45:39;;;;;;;;;;;2.10;67.00;;;;;;5051261;28;19916;-81
2023/01/28 12:48:15;;;;;;;;;;;1.90;68.90;;;;;;5054068;28;19913;-81
2023/01/28 12:50:46;;;;;;;;;;;2.00;69.00;;;;;;5052676;28;19909;-81
2023/01/28 12:53:23;;;;;;;;;;;1.90;68.50;;;;;;5054762;28;20361;-82
2023/01/28 12:56:03;;;;;;;;;;;1.80;68.30;;;;;;5054896;28;19909;-81
2023/01/28 12:58:39;;;;;;;;;;;1.90;69.30;;;;;;5058561;28;19912;-80
2023/01/28 13:01:08;;;;;;;;;;;1.70;69.30;;;;;;5051635;28;19920;-80
2023/01/28 13:03:49;;;;;;;;;;;1.70;69.40;;;;;;5054885;28;19920;-80
2023/01/28 13:06:18;;;;;;;;;;;1.80;69.50;;;;;;5047332;28;20007;-82
2023/01/28 13:08:44;;;;;;;;;;;1.90;68.90;;;;;;5063014;28;19987;-80
2023/01/28 13:11:15;;;;;;;;;;;1.90;68.60;;;;;;5039531;28;19927;-78
2023/01/28 13:13:41;;;;;;;;;;;1.90;68.90;;;;;;5043697;28;19913;-78
2023/01/28 13:16:08;;;;;;;;;;;2.10;68.90;;;;;;5043402;28;19917;-80
2023/01/28 13:18:34;;;;;;;;;;;2.10;68.50;;;;;;5054455;28;19936;-80
2023/01/28 13:21:00;;;;;;;;;;;2.20;68.00;;;;;;5057339;28;19921;-81
2023/01/28 13:23:29;;;;;;;;;;;2.20;67.20;;;;;;5060335;28;19922;-81
2023/01/28 13:25:55;;;;;;;;;;;1.80;66.40;;;;;;5058977;28;19920;-80
2023/01/28 13:28:25;;;;;;;;;;;1.80;68.00;;;;;;5051013;28;19913;-80
2023/01/28 13:30:59;;;;;;;;;;;1.90;67.70;;;;;;5053455;28;19923;-81
2023/01/28 13:33:27;;;;;;;;;;;1.90;67.70;;;;;;5049372;28;19923;-81
2023/01/28 13:35:54;;;;;;;;;;;1.80;68.40;;;;;;5039501;28;19944;-81
2023/01/28 13:38:20;;;;;;;;;;;1.90;69.00;;;;;;5051034;28;19989;-81
2023/01/28 13:40:59;;;;;;;;;;;1.90;67.50;;;;;;5043257;28;19912;-82
2023/01/28 13:43:31;;;;;;;;;;;1.80;68.00;;;;;;5049933;28;19959;-82
2023/01/28 13:45:58;;;;;;;;;;;1.80;69.40;;;;;;5052930;28;20018;-82
2023/01/28 13:48:32;;;;;;;;;;;2.00;68.40;;;;;;5049030;28;19916;-83
2023/01/28 13:50:58;;;;;;;;;;;2.20;67.40;;;;;;5041463;28;19960;-84
2023/01/28 13:53:33;;;;;;;;;;;2.20;68.30;;;;;;5049625;28;19913;-84
2023/01/28 13:55:59;;;;;;;;;;;2.20;68.70;;;;;;5052388;28;19920;-83
2023/01/28 13:58:30;;;;;;;;;;;2.30;68.20;;;;;;5054325;28;19913;-83
2023/01/28 14:01:14;;;;;;;;;;;2.20;67.70;;;;;;5049458;28;19913;-83
2023/01/28 14:03:59;;;;;;;;;;;2.10;67.30;;;;;;5047816;28;19925;-83
2023/01/28 14:06:27;;;;;;;;;;;2.20;66.90;;;;;;5039665;28;19916;-83
2023/01/28 14:09:11;;;;;;;;;;;2.20;67.80;;;;;;5045976;28;19917;-83
2023/01/28 14:12:05;;;;;;;;;;;2.30;67.20;;;;;;5045202;28;19920;-84
2023/01/28 14:14:39;;;;;;;;;;;2.20;67.20;;;;;;5048500;28;19917;-83
2023/01/28 14:17:16;;;;;;;;;;;2.30;67.60;;;;;;5042594;28;19913;-82
2023/01/28 14:19:43;;;;;;;;;;;2.30;67.40;;;;;;5042042;28;19927;-82
2023/01/28 14:22:13;;;;;;;;;;;2.30;67.00;;;;;;5045101;28;19913;-82
2023/01/28 14:24:38;;;;;;;;;;;2.10;67.80;;;;;;5058052;28;19909;-83
2023/01/28 14:27:07;;;;;;;;;;;2.10;68.30;;;;;;5057734;28;19908;-83
2023/01/28 14:30:02;;;;;;;;;;;2.10;68.80;;;;;;5052303;28;20400;-82
2023/01/28 14:32:29;;;;;;;;;;;2.00;68.50;;;;;;5029958;28;19916;-80
2023/01/28 14:34:56;;;;;;;;;;;1.90;68.30;;;;;;5047301;28;20502;-80
2023/01/28 14:37:24;;;;;;;;;;;1.90;69.30;;;;;;5063662;28;20005;-80
2023/01/28 14:39:55;;;;;;;;;;;1.90;69.80;;;;;;5055995;28;20365;-80
2023/01/28 14:42:26;;;;;;;;;;;2.00;69.70;;;;;;5038313;28;19963;-80
2023/01/28 14:45:01;;;;;;;;;;;2.00;69.60;;;;;;5049917;28;19914;-79
2023/01/28 14:47:35;;;;;;;;;;;2.00;69.50;;;;;;5043662;28;20271;-79
2023/01/28 14:50:20;;;;;;;;;;;2.00;69.40;;;;;;5047574;28;20409;-80
2023/01/28 14:53:12;;;;;;;;;;;1.90;68.90;;;;;;5046955;28;19988;-84
2023/01/28 14:55:56;;;;;;;;;;;1.80;68.70;;;;;;5048655;28;19913;-82
2023/01/28 14:58:35;;;;;;;;;;;1.80;69.00;;;;;;5048289;28;20599;-81
2023/01/28 15:01:01;;;;;;;;;;;1.90;69.60;;;;;;5042251;28;20396;-81
2023/01/28 15:03:27;;;;;;;;;;;2.00;69.20;;;;;;5045795;28;20046;-81
2023/01/28 15:06:03;;;;;;;;;;;2.00;69.60;;;;;;5050746;28;20029;-81
2023/01/28 15:08:31;;;;;;;;;;;1.90;69.60;;;;;;5054182;28;20007;-81
2023/01/28 15:10:57;;;;;;;;;;;1.90;69.00;;;;;;5045630;28;19917;-80